Time,TemperatureF,DewpointF,PressureIn,WindDirection,WindDirectionDegrees,WindSpeedMPH,WindSpeedGustMPH,Humidity,HourlyPrecipIn,Conditions,Clouds,dailyrainin,SoftwareType,DateUTC
2013-03-04 00:08:00,50.4,34.0,29.68,SE,130,4.0,18.0,53,0.00,,,0.00,weatherlink.com 1.10,2013-03-04 06:08:00,
2013-03-04 00:23:00,50.0,33.0,29.67,SE,132,5.0,16.0,53,0.00,,,0.00,weatherlink.com 1.10,2013-03-04 06:23:00,
2013-03-04 00:38:00,50.0,34.0,29.66,South,173,12.0,20.0,54,0.00,,,0.00,weatherlink.com 1.10,2013-03-04 06:38:00,
2013-03-04 00:53:00,50.1,34.0,29.65,SSE,158,3.0,18.0,54,0.00,,,0.00,weatherlink.com 1.10,2013-03-04 06:53:00,
2013-03-04 01:08:00,50.1,34.0,29.65,SSE,148,6.0,16.0,54,0.00,,,0.00,weatherlink.com 1.10,2013-03-04 07:08:00,
2013-03-04 01:23:00,50.0,34.0,29.64,SSE,155,9.0,19.0,55,0.00,,,0.00,weatherlink.com 1.10,2013-03-04 07:23:00,
2013-03-04 01:38:00,49.6,34.0,29.63,SSE,157,14.0,18.0,56,0.00,,,0.00,weatherlink.com 1.10,2013-03-04 07:38:00,
2013-03-04 01:53:00,49.4,35.0,29.63,SE,126,5.0,20.0,57,0.00,,,0.00,weatherlink.com 1.10,2013-03-04 07:53:00,
2013-03-04 02:09:00,49.0,35.0,29.62,South,186,9.0,15.0,58,0.00,,,0.00,weatherlink.com 1.10,2013-03-04 08:09:00,
2013-03-04 02:24:00,48.9,34.0,29.62,South,169,2.0,17.0,58,0.00,,,0.00,weatherlink.com 1.10,2013-03-04 08:24:00,
2013-03-04 02:39:00,48.6,35.0,29.62,SE,138,5.0,12.0,60,0.00,,,0.00,weatherlink.com 1.10,2013-03-04 08:39:00,
2013-03-04 02:54:00,48.2,35.0,29.61,SSE,149,6.0,9.0,61,0.00,,,0.00,weatherlink.com 1.10,2013-03-04 08:54:00,
2013-03-04 03:09:00,48.0,35.0,29.61,SSE,153,5.0,14.0,62,0.00,,,0.00,weatherlink.com 1.10,2013-03-04 09:09:00,
2013-03-04 03:24:00,48.1,36.0,29.60,SSE,153,5.0,15.0,63,0.00,,,0.00,weatherlink.com 1.10,2013-03-04 09:24:00,
2013-03-04 03:39:00,48.0,36.0,29.60,SE,144,6.0,10.0,64,0.00,,,0.00,weatherlink.com 1.10,2013-03-04 09:39:00,
2013-03-04 03:54:00,47.8,36.0,29.60,SSE,157,5.0,11.0,65,0.00,,,0.00,weatherlink.com 1.10,2013-03-04 09:54:00,
2013-03-04 04:09:00,47.9,37.0,29.60,SE,133,6.0,9.0,66,0.00,,,0.00,weatherlink.com 1.10,2013-03-04 10:09:00,
2013-03-04 04:24:00,48.0,37.0,29.60,SSE,149,8.0,10.0,67,0.00,,,0.00,weatherlink.com 1.10,2013-03-04 10:24:00,
2013-03-04 04:39:00,48.2,38.0,29.59,SSE,148,5.0,10.0,68,0.00,,,0.00,weatherlink.com 1.10,2013-03-04 10:39:00,
2013-03-04 04:54:00,48.7,39.0,29.59,SSE,151,6.0,9.0,69,0.00,,,0.00,weatherlink.com 1.10,2013-03-04 10:54:00,
2013-03-04 05:09:00,50.2,40.0,29.59,SE,135,6.0,11.0,68,0.00,,,0.00,weatherlink.com 1.10,2013-03-04 11:09:00,
2013-03-04 05:24:00,50.6,40.0,29.59,SSE,155,0.0,9.0,67,0.00,,,0.00,weatherlink.com 1.10,2013-03-04 11:24:00,
2013-03-04 05:39:00,50.7,40.0,29.59,SSE,153,4.0,12.0,67,0.00,,,0.00,weatherlink.com 1.10,2013-03-04 11:39:00,
2013-03-04 05:54:00,50.6,40.0,29.59,SE,140,7.0,12.0,68,0.00,,,0.00,weatherlink.com 1.10,2013-03-04 11:54:00,
2013-03-04 06:09:00,48.9,39.0,29.59,SE,144,4.0,10.0,69,0.00,,,0.00,weatherlink.com 1.10,2013-03-04 12:09:00,
2013-03-04 06:24:00,47.3,38.0,29.58,SSE,149,0.0,10.0,70,0.00,,,0.00,weatherlink.com 1.10,2013-03-04 12:24:00,
2013-03-04 06:39:00,46.8,38.0,29.58,SSE,162,5.0,9.0,71,0.00,,,0.00,weatherlink.com 1.10,2013-03-04 12:39:00,
2013-03-04 06:54:00,46.8,38.0,29.58,SSE,150,6.0,10.0,71,0.00,,,0.00,weatherlink.com 1.10,2013-03-04 12:54:00,
2013-03-04 07:09:00,46.7,38.0,29.58,SSE,153,3.0,11.0,71,0.00,,,0.00,weatherlink.com 1.10,2013-03-04 13:09:00,
2013-03-04 07:24:00,47.4,38.0,29.59,SSE,149,0.0,12.0,71,0.00,,,0.00,weatherlink.com 1.10,2013-03-04 13:24:00,
2013-03-04 07:39:00,48.0,39.0,29.60,SE,145,3.0,9.0,70,0.00,,,0.00,weatherlink.com 1.10,2013-03-04 13:39:00,
2013-03-04 07:54:00,49.0,39.0,29.60,SSE,154,0.0,11.0,69,0.00,,,0.00,weatherlink.com 1.10,2013-03-04 13:54:00,
2013-03-04 08:09:00,50.4,40.0,29.60,SSE,156,3.0,12.0,67,0.00,,,0.00,weatherlink.com 1.10,2013-03-04 14:09:00,
2013-03-04 08:24:00,51.3,40.0,29.60,South,171,6.0,9.0,66,0.00,,,0.00,weatherlink.com 1.10,2013-03-04 14:24:00,
2013-03-04 08:39:00,52.4,41.0,29.60,SE,136,1.0,11.0,65,0.00,,,0.00,weatherlink.com 1.10,2013-03-04 14:39:00,
2013-03-04 08:55:00,54.0,42.0,29.60,SE,142,7.0,12.0,63,0.00,,,0.00,weatherlink.com 1.10,2013-03-04 14:55:00,
2013-03-04 09:09:00,54.5,42.0,29.60,SE,125,10.0,14.0,62,0.00,,,0.00,weatherlink.com 1.10,2013-03-04 15:09:00,
2013-03-04 09:24:00,55.2,42.0,29.60,SE,143,8.0,14.0,62,0.00,,,0.00,weatherlink.com 1.10,2013-03-04 15:24:00,
2013-03-04 09:39:00,56.6,43.0,29.60,SSW,202,4.0,12.0,60,0.00,,,0.00,weatherlink.com 1.10,2013-03-04 15:39:00,
2013-03-04 09:54:00,58.1,44.0,29.59,South,180,6.0,13.0,59,0.00,,,0.00,weatherlink.com 1.10,2013-03-04 15:54:00,
2013-03-04 10:09:00,59.6,44.0,29.59,SE,137,4.0,14.0,57,0.00,,,0.00,weatherlink.com 1.10,2013-03-04 16:09:00,
2013-03-04 10:25:00,60.5,44.0,29.58,South,180,10.0,18.0,55,0.00,,,0.00,weatherlink.com 1.10,2013-03-04 16:25:00,
2013-03-04 10:40:00,62.1,44.0,29.58,South,181,5.0,15.0,52,0.00,,,0.00,weatherlink.com 1.10,2013-03-04 16:40:00,
2013-03-04 10:55:00,63.0,45.0,29.58,SSE,167,0.0,12.0,52,0.00,,,0.00,weatherlink.com 1.10,2013-03-04 16:55:00,
2013-03-04 11:10:00,64.1,44.0,29.58,South,183,9.0,15.0,48,0.00,,,0.00,weatherlink.com 1.10,2013-03-04 17:10:00,
2013-03-04 11:25:00,64.0,43.0,29.58,SSE,150,5.0,13.0,47,0.00,,,0.00,weatherlink.com 1.10,2013-03-04 17:25:00,
2013-03-04 11:40:00,64.2,43.0,29.58,SSW,196,1.0,14.0,47,0.00,,,0.00,weatherlink.com 1.10,2013-03-04 17:40:00,
2013-03-04 11:55:00,65.6,42.0,29.57,SSW,202,0.0,8.0,42,0.00,,,0.00,weatherlink.com 1.10,2013-03-04 17:55:00,
2013-03-04 12:10:00,66.2,43.0,29.57,South,187,12.0,15.0,43,0.00,,,0.00,weatherlink.com 1.10,2013-03-04 18:10:00,
2013-03-04 12:25:00,66.2,43.0,29.57,SSE,161,4.0,6.0,44,0.00,,,0.00,weatherlink.com 1.10,2013-03-04 18:25:00,
2013-03-04 12:40:00,67.1,42.0,29.57,SW,215,0.0,9.0,41,0.00,,,0.00,weatherlink.com 1.10,2013-03-04 18:40:00,
2013-03-04 12:55:00,68.3,43.0,29.56,SE,129,0.0,8.0,40,0.00,,,0.00,weatherlink.com 1.10,2013-03-04 18:55:00,
2013-03-04 13:10:00,68.3,43.0,29.56,SE,145,3.0,8.0,40,0.00,,,0.00,weatherlink.com 1.10,2013-03-04 19:10:00,
2013-03-04 13:25:00,68.9,43.0,29.55,WSW,249,0.0,6.0,39,0.00,,,0.00,weatherlink.com 1.10,2013-03-04 19:25:00,
2013-03-04 13:40:00,68.9,42.0,29.55,South,172,0.0,9.0,38,0.00,,,0.00,weatherlink.com 1.10,2013-03-04 19:40:00,
2013-03-04 13:55:00,69.1,42.0,29.55,SSE,161,3.0,11.0,37,0.00,,,0.00,weatherlink.com 1.10,2013-03-04 19:55:00,
2013-03-04 14:10:00,69.7,42.0,29.55,SSW,213,5.0,7.0,37,0.00,,,0.00,weatherlink.com 1.10,2013-03-04 20:10:00,
2013-03-04 14:25:00,69.2,42.0,29.55,SSE,153,0.0,9.0,37,0.00,,,0.00,weatherlink.com 1.10,2013-03-04 20:25:00,
2013-03-04 14:40:00,69.6,42.0,29.55,SSW,212,3.0,7.0,37,0.00,,,0.00,weatherlink.com 1.10,2013-03-04 20:40:00,
2013-03-04 14:55:00,69.9,42.0,29.56,South,179,6.0,9.0,36,0.00,,,0.00,weatherlink.com 1.10,2013-03-04 20:55:00,
2013-03-04 15:10:00,70.9,43.0,29.56,SSE,158,2.0,7.0,36,0.00,,,0.00,weatherlink.com 1.10,2013-03-04 21:10:00,
2013-03-04 15:25:00,71.2,42.0,29.56,SSW,204,3.0,8.0,35,0.00,,,0.00,weatherlink.com 1.10,2013-03-04 21:25:00,
2013-03-04 15:40:00,70.9,41.0,29.56,SSW,192,1.0,9.0,34,0.00,,,0.00,weatherlink.com 1.10,2013-03-04 21:40:00,
2013-03-04 15:55:00,71.3,41.0,29.57,West,260,3.0,7.0,34,0.00,,,0.00,weatherlink.com 1.10,2013-03-04 21:55:00,
2013-03-04 16:10:00,72.4,42.0,29.57,WSW,238,1.0,5.0,34,0.00,,,0.00,weatherlink.com 1.10,2013-03-04 22:10:00,
2013-03-04 16:25:00,71.3,42.0,29.57,West,275,0.0,5.0,35,0.00,,,0.00,weatherlink.com 1.10,2013-03-04 22:25:00,
2013-03-04 16:40:00,70.8,42.0,29.57,NW,317,0.0,4.0,35,0.00,,,0.00,weatherlink.com 1.10,2013-03-04 22:40:00,
2013-03-04 16:55:00,71.1,41.0,29.57,WSW,244,0.0,2.0,34,0.00,,,0.00,weatherlink.com 1.10,2013-03-04 22:55:00,
2013-03-04 17:10:00,70.5,41.0,29.58,NW,325,0.0,3.0,35,0.00,,,0.00,weatherlink.com 1.10,2013-03-04 23:10:00,
2013-03-04 17:25:00,70.2,41.0,29.59,NW,325,0.0,3.0,35,0.00,,,0.00,weatherlink.com 1.10,2013-03-04 23:25:00,
2013-03-04 17:40:00,69.5,41.0,29.60,NW,325,0.0,4.0,35,0.00,,,0.00,weatherlink.com 1.10,2013-03-04 23:40:00,
2013-03-04 17:55:00,68.7,41.0,29.60,NNW,342,0.0,0.0,36,0.00,,,0.00,weatherlink.com 1.10,2013-03-04 23:55:00,
2013-03-04 18:10:00,67.6,41.0,29.61,NNW,342,0.0,2.0,38,0.00,,,0.00,weatherlink.com 1.10,2013-03-05 00:10:00,
2013-03-04 18:25:00,66.5,41.0,29.62,NNW,342,0.0,0.0,39,0.00,,,0.00,weatherlink.com 1.10,2013-03-05 00:25:00,
2013-03-04 18:40:00,65.0,41.0,29.62,NNW,342,1.0,4.0,41,0.00,,,0.00,weatherlink.com 1.10,2013-03-05 00:40:00,
2013-03-04 18:55:00,64.3,41.0,29.63,NNW,345,5.0,7.0,43,0.00,,,0.00,weatherlink.com 1.10,2013-03-05 00:55:00,
2013-03-04 19:10:00,63.3,41.0,29.64,North,360,1.0,4.0,44,0.00,,,0.00,weatherlink.com 1.10,2013-03-05 01:10:00,
2013-03-04 19:25:00,58.7,41.0,29.67,NW,325,15.0,21.0,53,0.00,,,0.00,weatherlink.com 1.10,2013-03-05 01:25:00,
2013-03-04 19:40:00,55.2,40.0,29.69,North,5,14.0,26.0,58,0.00,,,0.00,weatherlink.com 1.10,2013-03-05 01:40:00,
2013-03-04 19:55:00,53.7,39.0,29.71,NNW,338,14.0,23.0,59,0.00,,,0.00,weatherlink.com 1.10,2013-03-05 01:55:00,
2013-03-04 20:10:00,52.7,39.0,29.72,NW,323,15.0,26.0,59,0.00,,,0.00,weatherlink.com 1.10,2013-03-05 02:10:00,
2013-03-04 20:26:00,51.7,38.0,29.73,North,5,21.0,27.0,59,0.00,,,0.00,weatherlink.com 1.10,2013-03-05 02:26:00,
2013-03-04 20:41:00,50.9,38.0,29.75,NE,38,10.0,26.0,61,0.00,,,0.00,weatherlink.com 1.10,2013-03-05 02:41:00,
2013-03-04 20:56:00,50.2,37.0,29.76,North,5,24.0,24.0,62,0.00,,,0.00,weatherlink.com 1.10,2013-03-05 02:56:00,
2013-03-04 21:11:00,49.3,37.0,29.78,North,360,10.0,24.0,63,0.00,,,0.00,weatherlink.com 1.10,2013-03-05 03:11:00,
2013-03-04 21:26:00,48.6,37.0,29.79,NNW,331,14.0,29.0,64,0.00,,,0.00,weatherlink.com 1.10,2013-03-05 03:26:00,
2013-03-04 21:41:00,48.1,37.0,29.80,NNW,342,18.0,23.0,65,0.00,,,0.00,weatherlink.com 1.10,2013-03-05 03:41:00,
2013-03-04 21:56:00,47.6,37.0,29.80,WNW,298,16.0,26.0,66,0.00,,,0.00,weatherlink.com 1.10,2013-03-05 03:56:00,
2013-03-04 22:11:00,47.3,37.0,29.82,North,5,10.0,27.0,67,0.00,,,0.00,weatherlink.com 1.10,2013-03-05 04:11:00,
2013-03-04 22:26:00,46.9,37.0,29.85,NNW,338,12.0,25.0,68,0.00,,,0.00,weatherlink.com 1.10,2013-03-05 04:26:00,
2013-03-04 22:41:00,46.8,37.0,29.86,NNW,339,23.0,23.0,68,0.00,,,0.00,weatherlink.com 1.10,2013-03-05 04:41:00,
2013-03-04 22:56:00,46.5,36.0,29.88,NNW,334,9.0,25.0,68,0.00,,,0.00,weatherlink.com 1.10,2013-03-05 04:56:00,
2013-03-04 23:11:00,45.7,36.0,29.88,North,355,9.0,24.0,69,0.00,,,0.00,weatherlink.com 1.10,2013-03-05 05:11:00,
2013-03-04 23:26:00,45.0,35.0,29.90,NW,324,22.0,33.0,68,0.00,,,0.00,weatherlink.com 1.10,2013-03-05 05:26:00,
2013-03-04 23:41:00,44.7,35.0,29.93,NNW,331,16.0,33.0,69,0.00,,,0.00,weatherlink.com 1.10,2013-03-05 05:41:00,
2013-03-04 23:56:00,44.4,34.0,29.94,NNW,344,23.0,27.0,68,0.00,,,0.00,weatherlink.com 1.10,2013-03-05 05:56:00,